sensor_id;sensor_type;location;lat;lon;timestamp;pressure;altitude;pressure_sealevel;temperature;humidity
6387;BME280;3226;42.162;24.756;2023-03-15T00:02:25;98826.00;;;4.90;59.19
6387;BME280;3226;42.162;24.756;2023-03-15T00:04:53;98840.22;;;5.09;59.45
6387;BME280;3226;42.162;24.756;2023-03-15T00:07:22;98833.78;;;4.90;59.48
6387;BME280;3226;42.162;24.756;2023-03-15T00:09:51;98832.34;;;4.62;61.83
6387;BME280;3226;42.162;24.756;2023-03-15T00:12:19;98832.44;;;4.85;60.68
6387;BME280;3226;42.162;24.756;2023-03-15T00:14:48;98834.22;;;4.60;61.09
6387;BME280;3226;42.162;24.756;2023-03-15T00:17:16;98830.78;;;4.59;61.77
6387;BME280;3226;42.162;24.756;2023-03-15T00:19:44;98832.66;;;4.57;61.92
6387;BME280;3226;42.162;24.756;2023-03-15T00:22:13;98832.66;;;4.57;63.37
6387;BME280;3226;42.162;24.756;2023-03-15T00:24:43;98820.50;;;4.58;62.53
6387;BME280;3226;42.162;24.756;2023-03-15T00:27:11;98825.75;;;4.45;64.92
6387;BME280;3226;42.162;24.756;2023-03-15T00:29:38;98820.41;;;4.59;63.82
6387;BME280;3226;42.162;24.756;2023-03-15T00:32:06;98824.38;;;4.52;64.15
6387;BME280;3226;42.162;24.756;2023-03-15T00:34:34;98823.72;;;4.61;63.56
6387;BME280;3226;42.162;24.756;2023-03-15T00:37:02;98824.66;;;4.60;63.72
6387;BME280;3226;42.162;24.756;2023-03-15T00:39:30;98818.38;;;4.39;64.21
6387;BME280;3226;42.162;24.756;2023-03-15T00:42:05;98808.72;;;4.41;64.60
6387;BME280;3226;42.162;24.756;2023-03-15T00:44:33;98805.28;;;4.53;64.24
6387;BME280;3226;42.162;24.756;2023-03-15T00:47:00;98807.53;;;4.20;66.97
6387;BME280;3226;42.162;24.756;2023-03-15T00:49:28;98801.59;;;4.31;67.67
6387;BME280;3226;42.162;24.756;2023-03-15T00:51:56;98795.22;;;4.24;67.66
6387;BME280;3226;42.162;24.756;2023-03-15T00:54:24;98808.19;;;4.11;68.45
6387;BME280;3226;42.162;24.756;2023-03-15T00:56:52;98800.44;;;3.85;69.42
6387;BME280;3226;42.162;24.756;2023-03-15T00:59:21;98804.50;;;3.51;71.12
6387;BME280;3226;42.162;24.756;2023-03-15T01:01:49;98808.03;;;3.63;71.25
6387;BME280;3226;42.162;24.756;2023-03-15T01:04:17;98802.63;;;3.79;70.82
6387;BME280;3226;42.162;24.756;2023-03-15T01:06:45;98797.25;;;3.95;69.82
6387;BME280;3226;42.162;24.756;2023-03-15T01:09:13;98791.13;;;3.70;70.41
6387;BME280;3226;42.162;24.756;2023-03-15T01:11:41;98782.63;;;3.68;71.27
6387;BME280;3226;42.162;24.756;2023-03-15T01:14:09;98782.13;;;3.50;72.01
6387;BME280;3226;42.162;24.756;2023-03-15T01:16:38;98781.28;;;3.62;71.33
6387;BME280;3226;42.162;24.756;2023-03-15T01:19:06;98778.38;;;3.41;72.39
6387;BME280;3226;42.162;24.756;2023-03-15T01:21:34;98782.41;;;3.45;72.64
6387;BME280;3226;42.162;24.756;2023-03-15T01:24:02;98787.41;;;3.61;71.95
6387;BME280;3226;42.162;24.756;2023-03-15T01:26:30;98781.91;;;3.40;72.93
6387;BME280;3226;42.162;24.756;2023-03-15T01:28:58;98783.75;;;3.38;72.88
6387;BME280;3226;42.162;24.756;2023-03-15T01:31:28;98786.03;;;3.29;73.25
6387;BME280;3226;42.162;24.756;2023-03-15T01:33:58;98774.31;;;3.11;74.28
6387;BME280;3226;42.162;24.756;2023-03-15T01:36:26;98771.13;;;3.20;74.48
6387;BME280;3226;42.162;24.756;2023-03-15T01:38:54;98770.28;;;3.20;74.65
6387;BME280;3226;42.162;24.756;2023-03-15T01:41:22;98764.28;;;3.06;75.22
6387;BME280;3226;42.162;24.756;2023-03-15T01:43:51;98763.19;;;2.96;75.72
6387;BME280;3226;42.162;24.756;2023-03-15T01:46:24;98758.25;;;3.06;75.78
6387;BME280;3226;42.162;24.756;2023-03-15T01:49:01;98728.25;;;2.90;75.56
6387;BME280;3226;42.162;24.756;2023-03-15T01:51:33;98757.56;;;3.29;75.18
6387;BME280;3226;42.162;24.756;2023-03-15T01:54:05;98764.72;;;3.39;74.96
6387;BME280;3226;42.162;24.756;2023-03-15T01:56:37;98771.25;;;3.31;74.87
6387;BME280;3226;42.162;24.756;2023-03-15T01:59:11;98769.88;;;3.26;75.61
6387;BME280;3226;42.162;24.756;2023-03-15T02:01:41;98771.31;;;3.30;76.05
6387;BME280;3226;42.162;24.756;2023-03-15T02:04:15;98771.44;;;3.15;76.28
6387;BME280;3226;42.162;24.756;2023-03-15T02:06:45;98760.81;;;2.93;77.49
6387;BME280;3226;42.162;24.756;2023-03-15T02:09:17;98757.16;;;3.23;77.08
6387;BME280;3226;42.162;24.756;2023-03-15T02:11:47;98754.03;;;3.17;77.05
6387;BME280;3226;42.162;24.756;2023-03-15T02:14:16;98757.03;;;3.11;76.96
6387;BME280;3226;42.162;24.756;2023-03-15T02:16:44;98751.56;;;3.29;76.71
6387;BME280;3226;42.162;24.756;2023-03-15T02:19:26;98750.53;;;3.18;77.55
6387;BME280;3226;42.162;24.756;2023-03-15T02:22:00;98745.44;;;3.04;77.92
6387;BME280;3226;42.162;24.756;2023-03-15T02:24:40;98716.75;;;2.94;78.45
6387;BME280;3226;42.162;24.756;2023-03-15T02:27:13;98724.84;;;3.15;78.27
6387;BME280;3226;42.162;24.756;2023-03-15T02:29:43;98745.66;;;3.01;78.64
6387;BME280;3226;42.162;24.756;2023-03-15T02:32:11;98744.38;;;2.94;79.45
6387;BME280;3226;42.162;24.756;2023-03-15T02:34:39;98743.75;;;2.90;79.73
6387;BME280;3226;42.162;24.756;2023-03-15T02:37:07;98750.69;;;3.02;79.31
6387;BME280;3226;42.162;24.756;2023-03-15T02:39:35;98744.63;;;3.16;78.62
6387;BME280;3226;42.162;24.756;2023-03-15T02:42:03;98739.53;;;3.15;78.64
6387;BME280;3226;42.162;24.756;2023-03-15T02:44:33;98734.38;;;3.28;77.77
6387;BME280;3226;42.162;24.756;2023-03-15T02:47:05;98741.31;;;3.14;77.87
6387;BME280;3226;42.162;24.756;2023-03-15T02:49:38;98739.94;;;3.09;79.40
6387;BME280;3226;42.162;24.756;2023-03-15T02:52:08;98738.59;;;3.16;78.93
6387;BME280;3226;42.162;24.756;2023-03-15T02:54:37;98721.44;;;3.02;78.59
6387;BME280;3226;42.162;24.756;2023-03-15T02:57:08;98738.44;;;3.19;78.98
6387;BME280;3226;42.162;24.756;2023-03-15T02:59:36;98704.56;;;2.96;78.92
6387;BME280;3226;42.162;24.756;2023-03-15T03:02:06;98720.44;;;2.77;80.69
6387;BME280;3226;42.162;24.756;2023-03-15T03:04:34;98724.50;;;2.81;81.48
6387;BME280;3226;42.162;24.756;2023-03-15T03:07:02;98724.00;;;2.89;81.87
6387;BME280;3226;42.162;24.756;2023-03-15T03:09:30;98722.84;;;2.80;81.71
6387;BME280;3226;42.162;24.756;2023-03-15T03:11:58;98714.44;;;2.77;81.64
6387;BME280;3226;42.162;24.756;2023-03-15T03:14:26;98721.69;;;2.84;81.19
6387;BME280;3226;42.162;24.756;2023-03-15T03:16:54;98718.47;;;2.81;81.63
6387;BME280;3226;42.162;24.756;2023-03-15T03:19:24;98716.94;;;2.78;82.36
6387;BME280;3226;42.162;24.756;2023-03-15T03:21:52;98719.81;;;2.73;82.14
6387;BME280;3226;42.162;24.756;2023-03-15T03:24:20;98709.50;;;2.86;82.24
6387;BME280;3226;42.162;24.756;2023-03-15T03:26:51;98711.44;;;2.70;82.69
6387;BME280;3226;42.162;24.756;2023-03-15T03:29:24;98707.03;;;2.85;82.13
6387;BME280;3226;42.162;24.756;2023-03-15T03:31:52;98710.34;;;2.87;81.84
6387;BME280;3226;42.162;24.756;2023-03-15T03:34:20;98681.16;;;2.44;82.58
6387;BME280;3226;42.162;24.756;2023-03-15T03:36:49;98721.34;;;2.63;82.95
6387;BME280;3226;42.162;24.756;2023-03-15T03:39:17;98715.19;;;2.51;83.45
6387;BME280;3226;42.162;24.756;2023-03-15T03:41:45;98707.78;;;2.32;84.64
6387;BME280;3226;42.162;24.756;2023-03-15T03:44:13;98711.63;;;2.12;85.56
6387;BME280;3226;42.162;24.756;2023-03-15T03:46:41;98709.50;;;2.19;86.68
6387;BME280;3226;42.162;24.756;2023-03-15T03:49:09;98706.03;;;2.05;86.79
6387;BME280;3226;42.162;24.756;2023-03-15T03:51:37;98703.16;;;2.10;87.04
6387;BME280;3226;42.162;24.756;2023-03-15T03:54:06;98697.94;;;1.97;87.64
6387;BME280;3226;42.162;24.756;2023-03-15T03:56:34;98691.16;;;2.09;87.40
6387;BME280;3226;42.162;24.756;2023-03-15T03:59:03;98696.34;;;2.09;87.44
6387;BME280;3226;42.162;24.756;2023-03-15T04:01:31;98709.78;;;2.14;86.73
6387;BME280;3226;42.162;24.756;2023-03-15T04:03:59;98716.22;;;2.21;86.87
6387;BME280;3226;42.162;24.756;2023-03-15T04:06:27;98709.84;;;2.27;87.10
6387;BME280;3226;42.162;24.756;2023-03-15T04:08:55;98711.09;;;2.34;86.45
6387;BME280;3226;42.162;24.756;2023-03-15T04:11:24;98710.50;;;2.43;85.80
6387;BME280;3226;42.162;24.756;2023-03-15T04:13:52;98708.25;;;2.39;86.04
6387;BME280;3226;42.162;24.756;2023-03-15T04:16:20;98693.69;;;2.23;86.33
6387;BME280;3226;42.162;24.756;2023-03-15T04:18:50;98705.69;;;2.24;87.62
6387;BME280;3226;42.162;24.756;2023-03-15T04:21:22;98717.47;;;2.28;87.25
6387;BME280;3226;42.162;24.756;2023-03-15T04:23:50;98710.66;;;2.27;86.61
6387;BME280;3226;42.162;24.756;2023-03-15T04:26:17;98689.63;;;2.34;86.35
6387;BME280;3226;42.162;24.756;2023-03-15T04:28:47;98680.84;;;2.09;87.42
6387;BME280;3226;42.162;24.756;2023-03-15T04:31:15;98672.03;;;1.84;88.18
6387;BME280;3226;42.162;24.756;2023-03-15T04:33:43;98676.56;;;1.80;88.45
6387;BME280;3226;42.162;24.756;2023-03-15T04:36:11;98678.13;;;1.83;88.62
6387;BME280;3226;42.162;24.756;2023-03-15T04:38:44;98688.53;;;1.96;88.07
6387;BME280;3226;42.162;24.756;2023-03-15T04:41:13;98689.25;;;1.98;87.35
6387;BME280;3226;42.162;24.756;2023-03-15T04:43:41;98699.59;;;1.98;86.88
6387;BME280;3226;42.162;24.756;2023-03-15T04:46:11;98697.84;;;1.98;86.92
6387;BME280;3226;42.162;24.756;2023-03-15T04:48:38;98698.84;;;1.96;87.58
6387;BME280;3226;42.162;24.756;2023-03-15T04:51:07;98705.16;;;2.19;86.07
6387;BME280;3226;42.162;24.756;2023-03-15T04:53:35;98695.56;;;1.79;87.00
6387;BME280;3226;42.162;24.756;2023-03-15T04:56:05;98687.22;;;1.61;88.18
6387;BME280;3226;42.162;24.756;2023-03-15T04:58:33;98703.88;;;1.55;89.09
6387;BME280;3226;42.162;24.756;2023-03-15T05:01:01;98700.00;;;1.63;89.06
6387;BME280;3226;42.162;24.756;2023-03-15T05:03:30;98709.31;;;1.65;88.68
6387;BME280;3226;42.162;24.756;2023-03-15T05:06:00;98691.59;;;1.73;88.27
6387;BME280;3226;42.162;24.756;2023-03-15T05:08:33;98706.91;;;1.77;88.62
6387;BME280;3226;42.162;24.756;2023-03-15T05:11:02;98705.81;;;1.66;88.46
6387;BME280;3226;42.162;24.756;2023-03-15T05:13:30;98681.03;;;1.35;89.69
6387;BME280;3226;42.162;24.756;2023-03-15T05:15:58;98702.69;;;1.32;89.91
6387;BME280;3226;42.162;24.756;2023-03-15T05:18:27;98716.69;;;1.28;89.96
6387;BME280;3226;42.162;24.756;2023-03-15T05:20:56;98712.09;;;1.33;89.55
6387;BME280;3226;42.162;24.756;2023-03-15T05:23:24;98707.94;;;1.45;90.41
6387;BME280;3226;42.162;24.756;2023-03-15T05:25:54;98713.38;;;1.55;89.37
6387;BME280;3226;42.162;24.756;2023-03-15T05:28:23;98707.28;;;1.70;88.56
6387;BME280;3226;42.162;24.756;2023-03-15T05:30:51;98707.56;;;1.66;88.89
6387;BME280;3226;42.162;24.756;2023-03-15T05:33:20;98710.22;;;1.79;88.25
6387;BME280;3226;42.162;24.756;2023-03-15T05:35:48;98708.72;;;1.89;87.77
6387;BME280;3226;42.162;24.756;2023-03-15T05:38:17;98707.91;;;1.88;87.79
6387;BME280;3226;42.162;24.756;2023-03-15T05:40:45;98699.25;;;1.75;87.84
6387;BME280;3226;42.162;24.756;2023-03-15T05:43:13;98707.84;;;1.76;87.88
6387;BME280;3226;42.162;24.756;2023-03-15T05:45:41;98697.22;;;1.80;88.37
6387;BME280;3226;42.162;24.756;2023-03-15T05:48:10;98692.38;;;1.61;88.25
6387;BME280;3226;42.162;24.756;2023-03-15T05:50:38;98697.19;;;1.95;87.56
6387;BME280;3226;42.162;24.756;2023-03-15T05:53:06;98691.59;;;1.73;87.89
6387;BME280;3226;42.162;24.756;2023-03-15T05:55:35;98696.41;;;1.65;88.66
6387;BME280;3226;42.162;24.756;2023-03-15T05:58:04;98700.44;;;1.84;88.05
6387;BME280;3226;42.162;24.756;2023-03-15T06:00:32;98693.53;;;1.84;88.24
6387;BME280;3226;42.162;24.756;2023-03-15T06:03:00;98689.28;;;1.69;88.78
6387;BME280;3226;42.162;24.756;2023-03-15T06:05:28;98700.53;;;1.68;89.14
6387;BME280;3226;42.162;24.756;2023-03-15T06:07:56;98699.69;;;1.82;88.66
6387;BME280;3226;42.162;24.756;2023-03-15T06:10:24;98704.41;;;1.90;88.41
6387;BME280;3226;42.162;24.756;2023-03-15T06:12:53;98699.13;;;2.33;87.87
6387;BME280;3226;42.162;24.756;2023-03-15T06:15:21;98705.38;;;3.10;85.64
6387;BME280;3226;42.162;24.756;2023-03-15T06:17:49;98705.88;;;3.67;80.77
6387;BME280;3226;42.162;24.756;2023-03-15T06:20:17;98698.63;;;4.09;78.50
6387;BME280;3226;42.162;24.756;2023-03-15T06:22:46;98700.03;;;4.26;76.78
6387;BME280;3226;42.162;24.756;2023-03-15T06:25:14;98709.22;;;4.30;77.10
6387;BME280;3226;42.162;24.756;2023-03-15T06:27:42;98708.34;;;4.67;74.73
6387;BME280;3226;42.162;24.756;2023-03-15T06:30:12;98697.59;;;4.60;73.95
6387;BME280;3226;42.162;24.756;2023-03-15T06:32:42;98699.75;;;4.18;76.20
6387;BME280;3226;42.162;24.756;2023-03-15T06:35:10;98696.94;;;3.84;77.86
6387;BME280;3226;42.162;24.756;2023-03-15T06:37:38;98698.88;;;3.43;79.55
6387;BME280;3226;42.162;24.756;2023-03-15T06:40:09;98688.22;;;3.35;80.74
6387;BME280;3226;42.162;24.756;2023-03-15T06:42:38;98696.06;;;3.59;79.50
6387;BME280;3226;42.162;24.756;2023-03-15T06:45:08;98698.28;;;3.89;79.01
6387;BME280;3226;42.162;24.756;2023-03-15T06:47:37;98691.91;;;4.07;77.61
6387;BME280;3226;42.162;24.756;2023-03-15T06:50:06;98691.75;;;3.97;78.02
6387;BME280;3226;42.162;24.756;2023-03-15T06:52:34;98705.47;;;3.60;79.87
6387;BME280;3226;42.162;24.756;2023-03-15T06:55:03;98710.69;;;3.97;78.60
6387;BME280;3226;42.162;24.756;2023-03-15T06:57:31;98703.09;;;3.57;79.61
6387;BME280;3226;42.162;24.756;2023-03-15T07:00:00;98698.63;;;4.33;78.10
6387;BME280;3226;42.162;24.756;2023-03-15T07:02:32;98702.69;;;5.20;74.76
6387;BME280;3226;42.162;24.756;2023-03-15T07:05:05;98703.66;;;5.19;73.39
6387;BME280;3226;42.162;24.756;2023-03-15T07:07:33;98704.69;;;5.28;73.05
6387;BME280;3226;42.162;24.756;2023-03-15T07:10:01;98701.59;;;5.00;73.61
6387;BME280;3226;42.162;24.756;2023-03-15T07:12:30;98688.53;;;4.66;74.29
6387;BME280;3226;42.162;24.756;2023-03-15T07:14:57;98686.34;;;4.84;74.39
6387;BME280;3226;42.162;24.756;2023-03-15T07:17:25;98692.25;;;4.86;74.59
6387;BME280;3226;42.162;24.756;2023-03-15T07:19:53;98683.53;;;4.27;76.24
6387;BME280;3226;42.162;24.756;2023-03-15T07:22:24;98689.06;;;4.47;76.38
6387;BME280;3226;42.162;24.756;2023-03-15T07:24:52;98690.25;;;4.90;74.92
6387;BME280;3226;42.162;24.756;2023-03-15T07:27:20;98693.84;;;5.23;74.00
6387;BME280;3226;42.162;24.756;2023-03-15T07:29:48;98693.03;;;5.23;73.39
6387;BME280;3226;42.162;24.756;2023-03-15T07:32:16;98691.63;;;5.30;72.83
6387;BME280;3226;42.162;24.756;2023-03-15T07:34:44;98678.41;;;5.44;71.98
6387;BME280;3226;42.162;24.756;2023-03-15T07:37:12;98683.22;;;5.03;73.12
6387;BME280;3226;42.162;24.756;2023-03-15T07:39:41;98670.63;;;5.21;73.84
6387;BME280;3226;42.162;24.756;2023-03-15T07:42:10;98679.56;;;5.86;71.50
6387;BME280;3226;42.162;24.756;2023-03-15T07:44:38;98681.59;;;5.59;70.78
6387;BME280;3226;42.162;24.756;2023-03-15T07:47:06;98667.75;;;5.02;73.50
6387;BME280;3226;42.162;24.756;2023-03-15T07:49:34;98669.56;;;5.47;72.35
6387;BME280;3226;42.162;24.756;2023-03-15T07:52:03;98674.38;;;5.40;71.95
6387;BME280;3226;42.162;24.756;2023-03-15T07:54:31;98669.28;;;6.07;71.80
6387;BME280;3226;42.162;24.756;2023-03-15T07:57:01;98668.69;;;6.36;69.69
6387;BME280;3226;42.162;24.756;2023-03-15T07:59:29;98661.56;;;6.17;69.95
6387;BME280;3226;42.162;24.756;2023-03-15T08:01:57;98670.53;;;6.78;67.53
6387;BME280;3226;42.162;24.756;2023-03-15T08:04:28;98668.88;;;6.23;68.07
6387;BME280;3226;42.162;24.756;2023-03-15T08:06:56;98662.31;;;5.96;70.50
6387;BME280;3226;42.162;24.756;2023-03-15T08:09:24;98660.63;;;6.50;67.86
6387;BME280;3226;42.162;24.756;2023-03-15T08:11:52;98648.34;;;5.97;69.09
6387;BME280;3226;42.162;24.756;2023-03-15T08:14:21;98645.16;;;5.93;70.79
6387;BME280;3226;42.162;24.756;2023-03-15T08:16:50;98626.91;;;5.84;70.03
6387;BME280;3226;42.162;24.756;2023-03-15T08:19:18;98629.50;;;5.84;70.85
6387;BME280;3226;42.162;24.756;2023-03-15T08:21:47;98620.97;;;5.93;70.43
6387;BME280;3226;42.162;24.756;2023-03-15T08:24:19;98609.34;;;6.08;69.86
6387;BME280;3226;42.162;24.756;2023-03-15T08:26:48;98610.34;;;6.29;69.68
6387;BME280;3226;42.162;24.756;2023-03-15T08:29:16;98604.84;;;6.64;67.84
6387;BME280;3226;42.162;24.756;2023-03-15T08:31:46;98602.88;;;7.09;66.21
6387;BME280;3226;42.162;24.756;2023-03-15T08:34:14;98604.28;;;7.13;65.36
6387;BME280;3226;42.162;24.756;2023-03-15T08:36:42;98602.94;;;6.67;67.74
6387;BME280;3226;42.162;24.756;2023-03-15T08:39:12;98592.16;;;6.50;67.34
6387;BME280;3226;42.162;24.756;2023-03-15T08:41:40;98596.97;;;6.01;69.73
6387;BME280;3226;42.162;24.756;2023-03-15T08:44:09;98595.84;;;6.15;70.34
6387;BME280;3226;42.162;24.756;2023-03-15T08:46:37;98607.31;;;6.66;67.82
6387;BME280;3226;42.162;24.756;2023-03-15T08:49:06;98605.03;;;6.73;66.93
6387;BME280;3226;42.162;24.756;2023-03-15T08:51:34;98589.09;;;6.66;66.21
6387;BME280;3226;42.162;24.756;2023-03-15T08:54:02;98602.59;;;6.81;65.41
6387;BME280;3226;42.162;24.756;2023-03-15T08:56:30;98615.56;;;6.92;64.87
6387;BME280;3226;42.162;24.756;2023-03-15T08:58:59;98610.13;;;6.74;64.79
6387;BME280;3226;42.162;24.756;2023-03-15T09:01:27;98598.16;;;6.08;67.95
6387;BME280;3226;42.162;24.756;2023-03-15T09:03:56;98602.88;;;6.57;66.86
6387;BME280;3226;42.162;24.756;2023-03-15T09:06:25;98586.97;;;7.02;64.83
6387;BME280;3226;42.162;24.756;2023-03-15T09:08:54;98603.94;;;7.78;62.34
6387;BME280;3226;42.162;24.756;2023-03-15T09:11:22;98592.84;;;8.25;61.40
6387;BME280;3226;42.162;24.756;2023-03-15T09:13:50;98580.19;;;8.70;58.93
6387;BME280;3226;42.162;24.756;2023-03-15T09:16:18;98578.41;;;8.71;59.35
6387;BME280;3226;42.162;24.756;2023-03-15T09:18:46;98577.31;;;8.44;58.74
6387;BME280;3226;42.162;24.756;2023-03-15T09:21:14;98574.44;;;8.47;59.49
6387;BME280;3226;42.162;24.756;2023-03-15T09:23:43;98574.06;;;8.51;59.62
6387;BME280;3226;42.162;24.756;2023-03-15T09:26:11;98566.88;;;9.11;57.72
6387;BME280;3226;42.162;24.756;2023-03-15T09:28:39;98569.16;;;9.70;55.42
6387;BME280;3226;42.162;24.756;2023-03-15T09:31:07;98561.69;;;9.29;56.10
6387;BME280;3226;42.162;24.756;2023-03-15T09:33:36;98548.47;;;9.77;55.48
6387;BME280;3226;42.162;24.756;2023-03-15T09:36:04;98562.06;;;10.17;52.65
6387;BME280;3226;42.162;24.756;2023-03-15T09:38:32;98569.94;;;10.61;51.83
6387;BME280;3226;42.162;24.756;2023-03-15T09:41:01;98577.22;;;10.31;53.82
6387;BME280;3226;42.162;24.756;2023-03-15T09:43:46;98565.13;;;9.76;53.11
6387;BME280;3226;42.162;24.756;2023-03-15T09:46:25;98563.66;;;9.91;53.89
6387;BME280;3226;42.162;24.756;2023-03-15T09:48:59;98561.16;;;10.26;52.11
6387;BME280;3226;42.162;24.756;2023-03-15T09:51:37;98550.94;;;10.59;50.59
6387;BME280;3226;42.162;24.756;2023-03-15T09:54:10;98554.44;;;10.68;49.75
6387;BME280;3226;42.162;24.756;2023-03-15T09:56:42;98549.91;;;10.78;50.35
6387;BME280;3226;42.162;24.756;2023-03-15T09:59:12;98552.91;;;10.57;51.12
6387;BME280;3226;42.162;24.756;2023-03-15T10:01:43;98537.56;;;10.62;50.05
6387;BME280;3226;42.162;24.756;2023-03-15T10:04:17;98535.56;;;9.75;52.96
6387;BME280;3226;42.162;24.756;2023-03-15T10:06:53;98532.47;;;9.62;54.86
6387;BME280;3226;42.162;24.756;2023-03-15T10:09:23;98522.16;;;10.15;52.01
6387;BME280;3226;42.162;24.756;2023-03-15T10:12:02;98529.41;;;10.21;52.04
6387;BME280;3226;42.162;24.756;2023-03-15T10:15:02;98529.63;;;8.71;54.94
6387;BME280;3226;42.162;24.756;2023-03-15T10:17:38;98525.06;;;9.11;55.64
6387;BME280;3226;42.162;24.756;2023-03-15T10:20:11;98521.56;;;9.66;53.89
6387;BME280;3226;42.162;24.756;2023-03-15T10:22:46;98517.63;;;9.80;54.24
6387;BME280;3226;42.162;24.756;2023-03-15T10:25:19;98526.56;;;9.96;53.74
6387;BME280;3226;42.162;24.756;2023-03-15T10:27:53;98525.66;;;10.05;52.48
6387;BME280;3226;42.162;24.756;2023-03-15T10:30:24;98523.09;;;10.50;51.75
6387;BME280;3226;42.162;24.756;2023-03-15T10:32:57;98523.72;;;10.44;52.46
6387;BME280;3226;42.162;24.756;2023-03-15T10:35:27;98520.72;;;10.20;51.96
6387;BME280;3226;42.162;24.756;2023-03-15T10:37:55;98509.41;;;9.93;52.17
6387;BME280;3226;42.162;24.756;2023-03-15T10:40:38;98514.09;;;10.08;52.19
6387;BME280;3226;42.162;24.756;2023-03-15T10:43:16;98510.06;;;10.13;51.64
6387;BME280;3226;42.162;24.756;2023-03-15T10:45:58;98496.75;;;10.33;53.40
6387;BME280;3226;42.162;24.756;2023-03-15T10:48:27;98484.06;;;10.65;50.88
6387;BME280;3226;42.162;24.756;2023-03-15T10:50:56;98494.28;;;11.27;48.85
6387;BME280;3226;42.162;24.756;2023-03-15T10:53:24;98493.03;;;11.56;47.43
6387;BME280;3226;42.162;24.756;2023-03-15T10:56:01;98493.34;;;11.45;47.98
6387;BME280;3226;42.162;24.756;2023-03-15T10:58:40;98492.41;;;11.96;46.41
6387;BME280;3226;42.162;24.756;2023-03-15T11:01:13;98491.41;;;11.55;46.98
6387;BME280;3226;42.162;24.756;2023-03-15T11:04:00;98480.75;;;11.57;47.33
6387;BME280;3226;42.162;24.756;2023-03-15T11:06:39;98481.44;;;11.84;46.28
6387;BME280;3226;42.162;24.756;2023-03-15T11:09:09;98485.84;;;11.59;47.00
6387;BME280;3226;42.162;24.756;2023-03-15T11:11:48;98470.09;;;10.91;48.38
6387;BME280;3226;42.162;24.756;2023-03-15T11:14:19;98484.13;;;10.47;50.11
6387;BME280;3226;42.162;24.756;2023-03-15T11:16:49;98488.91;;;10.86;50.11
6387;BME280;3226;42.162;24.756;2023-03-15T11:19:21;98485.91;;;11.16;49.19
6387;BME280;3226;42.162;24.756;2023-03-15T11:21:50;98494.50;;;11.51;47.10
6387;BME280;3226;42.162;24.756;2023-03-15T11:24:28;98479.63;;;11.68;46.39
6387;BME280;3226;42.162;24.756;2023-03-15T11:26:58;98485.53;;;11.86;46.27
6387;BME280;3226;42.162;24.756;2023-03-15T11:29:30;98479.44;;;11.53;47.62
6387;BME280;3226;42.162;24.756;2023-03-15T11:31:59;98469.13;;;11.60;46.61
6387;BME280;3226;42.162;24.756;2023-03-15T11:34:36;98455.53;;;11.89;45.39
6387;BME280;3226;42.162;24.756;2023-03-15T11:37:12;98463.56;;;11.54;45.60
6387;BME280;3226;42.162;24.756;2023-03-15T11:39:44;98473.09;;;11.04;48.19
6387;BME280;3226;42.162;24.756;2023-03-15T11:42:21;98463.00;;;11.26;47.88
6387;BME280;3226;42.162;24.756;2023-03-15T11:44:54;98465.66;;;11.51;47.95
6387;BME280;3226;42.162;24.756;2023-03-15T11:47:33;98468.47;;;11.57;47.63
6387;BME280;3226;42.162;24.756;2023-03-15T11:50:01;98469.13;;;11.93;46.02
6387;BME280;3226;42.162;24.756;2023-03-15T11:52:30;98462.91;;;11.85;46.42
6387;BME280;3226;42.162;24.756;2023-03-15T11:55:00;98453.72;;;11.90;45.09
6387;BME280;3226;42.162;24.756;2023-03-15T11:57:38;98443.22;;;11.81;45.95
6387;BME280;3226;42.162;24.756;2023-03-15T12:03:45;98443.22;;;11.81;46.11
6387;BME280;3226;42.162;24.756;2023-03-15T12:06:35;98449.94;;;11.84;46.08
6387;BME280;3226;42.162;24.756;2023-03-15T12:09:37;98443.88;;;11.75;45.65
6387;BME280;3226;42.162;24.756;2023-03-15T12:12:36;98445.34;;;11.61;46.01
6387;BME280;3226;42.162;24.756;2023-03-15T12:15:14;98431.75;;;11.57;47.01
6387;BME280;3226;42.162;24.756;2023-03-15T12:18:02;98426.34;;;11.84;46.64
6387;BME280;3226;42.162;24.756;2023-03-15T12:20:33;98430.41;;;11.28;47.75
6387;BME280;3226;42.162;24.756;2023-03-15T12:23:21;98421.25;;;10.65;49.58
6387;BME280;3226;42.162;24.756;2023-03-15T12:25:56;98415.50;;;10.35;50.22
6387;BME280;3226;42.162;24.756;2023-03-15T12:28:29;98413.34;;;10.30;50.28
6387;BME280;3226;42.162;24.756;2023-03-15T12:31:02;98425.44;;;10.58;49.84
6387;BME280;3226;42.162;24.756;2023-03-15T12:33:43;98408.47;;;10.35;49.98
6387;BME280;3226;42.162;24.756;2023-03-15T12:36:26;98419.31;;;10.75;50.03
6387;BME280;3226;42.162;24.756;2023-03-15T12:39:03;98424.88;;;10.80;49.29
6387;BME280;3226;42.162;24.756;2023-03-15T12:41:47;98407.09;;;10.58;49.66
6387;BME280;3226;42.162;24.756;2023-03-15T12:44:25;98396.88;;;10.73;49.07
6387;BME280;3226;42.162;24.756;2023-03-15T12:46:58;98390.66;;;10.74;48.73
6387;BME280;3226;42.162;24.756;2023-03-15T12:49:32;98395.94;;;10.90;49.03
6387;BME280;3226;42.162;24.756;2023-03-15T12:52:02;98391.09;;;11.28;48.77
6387;BME280;3226;42.162;24.756;2023-03-15T12:54:36;98401.28;;;11.56;47.92
6387;BME280;3226;42.162;24.756;2023-03-15T12:57:09;98395.84;;;11.66;46.82
6387;BME280;3226;42.162;24.756;2023-03-15T12:59:45;98410.09;;;11.39;46.98
6387;BME280;3226;42.162;24.756;2023-03-15T13:02:23;98405.19;;;11.19;47.24
6387;BME280;3226;42.162;24.756;2023-03-15T13:05:19;98406.50;;;11.48;47.57
6387;BME280;3226;42.162;24.756;2023-03-15T13:07:57;98398.16;;;11.36;46.93
6387;BME280;3226;42.162;24.756;2023-03-15T13:16:23;98384.03;;;11.21;46.73
6387;BME280;3226;42.162;24.756;2023-03-15T13:18:58;98392.03;;;10.94;46.35
6387;BME280;3226;42.162;24.756;2023-03-15T13:21:33;98388.09;;;10.98;46.12
6387;BME280;3226;42.162;24.756;2023-03-15T13:24:09;98381.22;;;10.97;46.02
6387;BME280;3226;42.162;24.756;2023-03-15T13:26:48;98381.22;;;11.06;46.44
6387;BME280;3226;42.162;24.756;2023-03-15T13:29:21;98382.91;;;11.23;46.57
6387;BME280;3226;42.162;24.756;2023-03-15T13:32:00;98380.28;;;11.40;46.51
6387;BME280;3226;42.162;24.756;2023-03-15T13:34:30;98369.63;;;11.25;46.53
6387;BME280;3226;42.162;24.756;2023-03-15T13:36:59;98375.34;;;11.12;46.55
6387;BME280;3226;42.162;24.756;2023-03-15T13:39:31;98374.56;;;11.45;46.05
6387;BME280;3226;42.162;24.756;2023-03-15T13:42:00;98374.88;;;11.66;45.92
6387;BME280;3226;42.162;24.756;2023-03-15T13:44:30;98363.56;;;11.74;45.18
6387;BME280;3226;42.162;24.756;2023-03-15T13:47:00;98368.00;;;11.74;45.43
6387;BME280;3226;42.162;24.756;2023-03-15T13:49:32;98361.47;;;11.69;45.41